Terminal Aerodrome Forecast
Issued by NWS

Home | Current Version | Previous Version | Text Only | Print | Product List | Glossary On
Versions: 1 2 3 4 5 6 7 8 9 10 11 12 13 14
000
FTUS44 KEPZ 052300
TAFDMN
TAF
KDMN 052323Z 0600/0624 27018G25KT P6SM SCT100
     FM060300 28009KT P6SM SCT250
     FM061800 25012KT P6SM BKN250
     FM062100 25015G25KT P6SM FEW100 SCT200=

USA.gov is the U.S. government's official web portal to all federal, state and local government web resources and services.